Terminal Aerodrome Forecast
Issued by NWS Blacksburg, VA

Current Version | Previous Version | Graphics & Text | Print | Product List | Glossary On
Versions: 1 2 3 4 5 6 7 8 9 10 11 12 13 14 15 16 17 18 19 20
000
FTUS41 KRNK 242334
TAFBLF
TAF
KBLF 242334Z 2500/2524 16007KT P6SM SCT050
     FM250600 18007KT P6SM BKN030
     FM251200 24010G20KT 4SM -SHRA OVC020
      TEMPO 2512/2516 2SM TSRA BR OVC012CB
     FM251800 28015G25KT P6SM BKN025=

USA.gov is the U.S. government's official web portal to all federal, state and local government web resources and services.